地図

経路データ

SID SEASON NUMBER BASIN SUBBASIN NAME ISO_TIME NATURE LAT LON WMO_WIND WMO_PRES WMO_AGENCY TRACK_TYPE DIST2LAND LANDFALL IFLAG USA_AGENCY USA_ATCF_ID USA_LAT USA_LON USA_RECORD USA_STATUS USA_WIND USA_PRES USA_SSHS USA_R34_NE USA_R34_SE USA_R34_SW USA_R34_NW USA_R50_NE USA_R50_SE USA_R50_SW USA_R50_NW USA_R64_NE USA_R64_SE USA_R64_SW USA_R64_NW USA_POCI USA_ROCI USA_RMW USA_EYE TOKYO_LAT TOKYO_LON TOKYO_GRADE TOKYO_WIND TOKYO_PRES TOKYO_R50_DIR TOKYO_R50_LONG TOKYO_R50_SHORT TOKYO_R30_DIR TOKYO_R30_LONG TOKYO_R30_SHORT TOKYO_LAND CMA_LAT CMA_LON CMA_CAT CMA_WIND CMA_PRES HKO_LAT HKO_LON HKO_CAT HKO_WIND HKO_PRES NEWDELHI_LAT NEWDELHI_LON NEWDELHI_GRADE NEWDELHI_WIND NEWDELHI_PRES NEWDELHI_CI NEWDELHI_DP NEWDELHI_POCI REUNION_LAT REUNION_LON REUNION_TYPE REUNION_WIND REUNION_PRES REUNION_TNUM REUNION_CI REUNION_RMW REUNION_R34_NE REUNION_R34_SE REUNION_R34_SW REUNION_R34_NW REUNION_R50_NE REUNION_R50_SE REUNION_R50_SW REUNION_R50_NW REUNION_R64_NE REUNION_R64_SE REUNION_R64_SW REUNION_R64_NW BOM_LAT BOM_LON BOM_TYPE BOM_WIND BOM_PRES BOM_TNUM BOM_CI BOM_RMW BOM_R34_NE BOM_R34_SE BOM_R34_SW BOM_R34_NW BOM_R50_NE BOM_R50_SE BOM_R50_SW BOM_R50_NW BOM_R64_NE BOM_R64_SE BOM_R64_SW BOM_R64_NW BOM_ROCI BOM_POCI BOM_EYE BOM_POS_METHOD BOM_PRES_METHOD NADI_LAT NADI_LON NADI_CAT NADI_WIND NADI_PRES WELLINGTON_LAT WELLINGTON_LON WELLINGTON_WIND WELLINGTON_PRES DS824_LAT DS824_LON DS824_STAGE DS824_WIND DS824_PRES TD9636_LAT TD9636_LON TD9636_STAGE TD9636_WIND TD9636_PRES TD9635_LAT TD9635_LON TD9635_WIND TD9635_PRES TD9635_ROCI NEUMANN_LAT NEUMANN_LON NEUMANN_CLASS NEUMANN_WIND NEUMANN_PRES MLC_LAT MLC_LON MLC_CLASS MLC_WIND MLC_PRES USA_GUST BOM_GUST BOM_GUST_PER REUNION_GUST REUNION_GUST_PER USA_SEAHGT USA_SEARAD_NE USA_SEARAD_SE USA_SEARAD_SW USA_SEARAD_NW STORM_SPEED STORM_DIR
1932225N22270 1932 41 NA GM NOT_NAMED 1932-08-12 00:00:00 TS 22.0000 -90.3000 35 hurdat_atl main 98 98 O_____________ hurdat_atl AL021932 22.0000 -90.3000 TS 35 0 11 335
1932225N22270 1932 41 NA GM NOT_NAMED 1932-08-12 03:00:00 TS 22.4926 -90.5448 main 157 157 P_____________ AL021932 22.4926 -90.5448 TS 37 0 11 335
1932225N22270 1932 41 NA GM NOT_NAMED 1932-08-12 06:00:00 TS 23.0000 -90.8000 40 hurdat_atl main 218 218 O_____________ hurdat_atl AL021932 23.0000 -90.8000 TS 40 0 11 335
1932225N22270 1932 41 NA GM NOT_NAMED 1932-08-12 09:00:00 TS 23.5225 -91.0649 main 280 280 P_____________ AL021932 23.5225 -91.0649 TS 42 0 11 335
1932225N22270 1932 41 NA GM NOT_NAMED 1932-08-12 12:00:00 TS 24.0000 -91.3000 45 hurdat_atl main 340 340 O_____________ hurdat_atl AL021932 24.0000 -91.3000 TS 45 0 9 337
1932225N22270 1932 41 NA GM NOT_NAMED 1932-08-12 15:00:00 TS 24.3724 -91.4653 main 388 388 P_____________ AL021932 24.3724 -91.4653 TS 47 0 8 339
1932225N22270 1932 41 NA GM NOT_NAMED 1932-08-12 18:00:00 TS 24.7000 -91.6000 50 hurdat_atl main 423 423 O_____________ hurdat_atl AL021932 24.7000 -91.6000 TS 50 0 7 340
1932225N22270 1932 41 NA GM NOT_NAMED 1932-08-12 21:00:00 TS 25.0500 -91.7427 main 458 424 P_____________ AL021932 25.0500 -91.7427 TS 52 0 8 339
1932225N22270 1932 41 NA GM NOT_NAMED 1932-08-13 00:00:00 TS 25.4000 -91.9000 55 hurdat_atl main 424 394 O_____________ hurdat_atl AL021932 25.4000 -91.9000 TS 55 0 8 336
1932225N22270 1932 41 NA GM NOT_NAMED 1932-08-13 03:00:00 TS 25.7350 -92.0852 main 397 362 P_____________ AL021932 25.7350 -92.0852 TS 60 0 8 333
1932225N22270 1932 41 NA GM NOT_NAMED 1932-08-13 06:00:00 TS 26.1000 -92.3000 65 hurdat_atl main 362 330 O_____________ hurdat_atl AL021932 26.1000 -92.3000 HU 65 1 9 334
1932225N22270 1932 41 NA GM NOT_NAMED 1932-08-13 09:00:00 TS 26.5348 -92.5129 main 330 283 P_____________ AL021932 26.5348 -92.5129 HU 77 1 10 334
1932225N22270 1932 41 NA GM NOT_NAMED 1932-08-13 12:00:00 TS 27.0000 -92.8000 90 hurdat_atl main 283 247 O_____________ hurdat_atl AL021932 27.0000 -92.8000 HU 90 2 11 326
1932225N22270 1932 41 NA GM NOT_NAMED 1932-08-13 15:00:00 TS 27.4651 -93.2198 main 239 191 P_____________ AL021932 27.4651 -93.2198 HU 100 3 12 318
1932225N22270 1932 41 NA GM NOT_NAMED 1932-08-13 18:00:00 TS 27.9000 -93.7000 110 hurdat_atl main 191 132 O_____________ hurdat_atl AL021932 27.9000 -93.7000 HU 110 3 12 315
1932225N22270 1932 41 NA GM NOT_NAMED 1932-08-13 21:00:00 TS 28.2732 -94.1503 main 124 73 P_____________ AL021932 28.2732 -94.1503 HU 117 4 11 311
1932225N22270 1932 41 NA GM NOT_NAMED 1932-08-14 00:00:00 TS 28.6000 -94.6000 125 942 hurdat_atl main 73 22 O_____________ hurdat_atl AL021932 28.6000 -94.6000 HU 125 942 4 10 309
1932225N22270 1932 41 NA GM NOT_NAMED 1932-08-14 03:00:00 TS 28.9218 -95.0500 main 22 0 P_____________ AL021932 28.9218 -95.0500 HU 128 936 4 10 307
1932225N22270 1932 41 NA GM NOT_NAMED 1932-08-14 04:00:00 TS 29.0000 -95.2000 130 935 hurdat_atl main 0 0 O_____________ hurdat_atl AL021932 29.0000 -95.2000 L HU 130 935 4 9 294
1932225N22270 1932 41 NA NA NOT_NAMED 1932-08-14 06:00:00 TS 29.1000 -95.5000 100 942 hurdat_atl main 0 0 O_____________ hurdat_atl AL021932 29.1000 -95.5000 HU 100 942 3 9 300
1932225N22270 1932 41 NA NA NOT_NAMED 1932-08-14 09:00:00 TS 29.3520 -95.9118 main 0 0 P_____________ AL021932 29.3520 -95.9118 HU 82 964 1 9 311
1932225N22270 1932 41 NA NA NOT_NAMED 1932-08-14 12:00:00 TS 29.7000 -96.3000 65 987 hurdat_atl main 0 0 O_____________ hurdat_atl AL021932 29.7000 -96.3000 HU 65 987 1 10 317
1932225N22270 1932 41 NA NA NOT_NAMED 1932-08-14 15:00:00 TS 30.0774 -96.7002 main 0 0 P_____________ AL021932 30.0774 -96.7002 HU 52 990 0 11 319
1932225N22270 1932 41 NA NA NOT_NAMED 1932-08-14 18:00:00 TS 30.5000 -97.1000 40 hurdat_atl main 0 0 I_____________ hurdat_atl AL021932 30.5000 -97.1000 TS 40 994 0 11 321
1932225N22270 1932 41 NA NA NOT_NAMED 1932-08-14 21:00:00 TS 30.9349 -97.5004 main 0 0 P_____________ AL021932 30.9349 -97.5004 TS 35 998 0 11 323
1932225N22270 1932 41 NA NA NOT_NAMED 1932-08-15 00:00:00 TS 31.4000 -97.9000 30 1002 hurdat_atl main 0 0 O_____________ hurdat_atl AL021932 31.4000 -97.9000 TD 30 1002 -1 12 324
1932225N22270 1932 41 NA NA NOT_NAMED 1932-08-15 03:00:00 TS 31.8849 -98.3004 main 0 0 P_____________ AL021932 31.8849 -98.3004 TD 27 -1 12 326
1932225N22270 1932 41 NA NA NOT_NAMED 1932-08-15 06:00:00 TS 32.4000 -98.7000 25 hurdat_atl main 0 0 O_____________ hurdat_atl AL021932 32.4000 -98.7000 TD 25 -1 13 328
1932225N22270 1932 41 NA NA NOT_NAMED 1932-08-15 09:00:00 TS 32.9499 -99.1003 main 0 0 P_____________ AL021932 32.9499 -99.1003 TD 25 -1 13 329
1932225N22270 1932 41 NA NA NOT_NAMED 1932-08-15 12:00:00 TS 33.5000 -99.5000 25 hurdat_atl main 0 0 O_____________ hurdat_atl AL021932 33.5000 -99.5000 TD 25 -1 13 328
1932225N22270 1932 41 NA NA NOT_NAMED 1932-08-15 15:00:00 TS 34.0128 -99.8992 main 0 0 P_____________ AL021932 34.0128 -99.8992 TD 22 -1 12 326
1932225N22270 1932 41 NA NA NOT_NAMED 1932-08-15 18:00:00 TS 34.5000 -100.300 20 hurdat_atl main 0 O_____________ hurdat_atl AL021932 34.5000 -100.300 TD 20 -1 12 326

IBTrACS Databaseについて

本データベースは、米国NOAAが公開する1842年以降の世界の熱帯低気圧のベストトラックデータアーカイブInternational Best Track Archive for Climate Stewardship (IBTrACS)を、ウェブで閲覧しやすい形式に変換したものです。

最終更新日:2021-10-25